sensor_id;sensor_type;location;lat;lon;timestamp;pressure;altitude;pressure_sealevel;temperature;humidity
79538;BME280;68989;52.032;5.152;2023-07-09T00:00:13;101790.84;;;32.06;37.35
79538;BME280;68989;52.032;5.152;2023-07-09T00:02:40;101790.67;;;32.02;37.41
79538;BME280;68989;52.032;5.152;2023-07-09T00:05:11;101789.86;;;31.98;37.34
79538;BME280;68989;52.032;5.152;2023-07-09T00:07:39;101787.90;;;31.94;37.35
79538;BME280;68989;52.032;5.152;2023-07-09T00:10:16;101787.50;;;31.90;37.49
79538;BME280;68989;52.032;5.152;2023-07-09T00:12:43;101786.64;;;31.87;37.54
79538;BME280;68989;52.032;5.152;2023-07-09T00:15:12;101790.90;;;31.84;37.60
79538;BME280;68989;52.032;5.152;2023-07-09T00:17:39;101798.17;;;31.81;37.69
79538;BME280;68989;52.032;5.152;2023-07-09T00:20:07;101801.69;;;31.74;37.81
79538;BME280;68989;52.032;5.152;2023-07-09T00:22:38;101807.03;;;31.68;37.94
79538;BME280;68989;52.032;5.152;2023-07-09T00:25:06;101810.36;;;31.65;37.98
79538;BME280;68989;52.032;5.152;2023-07-09T00:27:34;101808.54;;;31.61;38.06
79538;BME280;68989;52.032;5.152;2023-07-09T00:30:02;101810.61;;;31.57;38.09
79538;BME280;68989;52.032;5.152;2023-07-09T00:32:29;101815.94;;;31.54;38.10
79538;BME280;68989;52.032;5.152;2023-07-09T00:34:56;101818.23;;;31.51;38.16
79538;BME280;68989;52.032;5.152;2023-07-09T00:37:24;101818.48;;;31.47;38.22
79538;BME280;68989;52.032;5.152;2023-07-09T00:39:51;101815.15;;;31.47;38.26
79538;BME280;68989;52.032;5.152;2023-07-09T00:42:21;101813.81;;;31.43;38.38
79538;BME280;68989;52.032;5.152;2023-07-09T00:44:51;101818.91;;;31.41;38.27
79538;BME280;68989;52.032;5.152;2023-07-09T00:47:22;101819.13;;;31.38;38.32
79538;BME280;68989;52.032;5.152;2023-07-09T00:49:59;101818.64;;;31.35;38.44
79538;BME280;68989;52.032;5.152;2023-07-09T00:52:32;101819.92;;;31.33;38.44
79538;BME280;68989;52.032;5.152;2023-07-09T00:55:04;101819.90;;;31.31;38.38
79538;BME280;68989;52.032;5.152;2023-07-09T00:57:32;101820.03;;;31.28;38.46
79538;BME280;68989;52.032;5.152;2023-07-09T01:00:05;101816.53;;;31.25;38.57
79538;BME280;68989;52.032;5.152;2023-07-09T01:02:35;101814.31;;;31.22;38.62
79538;BME280;68989;52.032;5.152;2023-07-09T01:05:02;101811.92;;;31.19;38.56
79538;BME280;68989;52.032;5.152;2023-07-09T01:07:30;101815.00;;;31.16;38.68
79538;BME280;68989;52.032;5.152;2023-07-09T01:09:58;101817.96;;;31.12;38.63
79538;BME280;68989;52.032;5.152;2023-07-09T01:12:25;101817.82;;;31.09;38.63
79538;BME280;68989;52.032;5.152;2023-07-09T01:14:54;101817.58;;;31.06;38.70
79538;BME280;68989;52.032;5.152;2023-07-09T01:17:22;101819.53;;;31.02;38.72
79538;BME280;68989;52.032;5.152;2023-07-09T01:19:51;101819.95;;;31.00;38.80
79538;BME280;68989;52.032;5.152;2023-07-09T01:22:19;101822.74;;;30.97;38.86
79538;BME280;68989;52.032;5.152;2023-07-09T01:24:51;101821.78;;;30.93;38.85
79538;BME280;68989;52.032;5.152;2023-07-09T01:27:21;101821.83;;;30.91;38.87
79538;BME280;68989;52.032;5.152;2023-07-09T01:29:49;101819.50;;;30.88;38.88
79538;BME280;68989;52.032;5.152;2023-07-09T01:32:17;101821.56;;;30.85;38.98
79538;BME280;68989;52.032;5.152;2023-07-09T01:34:46;101823.47;;;30.83;39.02
79538;BME280;68989;52.032;5.152;2023-07-09T01:37:15;101824.99;;;30.80;39.04
79538;BME280;68989;52.032;5.152;2023-07-09T01:39:42;101826.90;;;30.77;39.03
79538;BME280;68989;52.032;5.152;2023-07-09T01:42:09;101827.27;;;30.73;39.08
79538;BME280;68989;52.032;5.152;2023-07-09T01:44:37;101829.58;;;30.70;39.10
79538;BME280;68989;52.032;5.152;2023-07-09T01:47:05;101831.15;;;30.66;39.26
79538;BME280;68989;52.032;5.152;2023-07-09T01:49:32;101826.37;;;30.61;39.22
79538;BME280;68989;52.032;5.152;2023-07-09T01:52:00;101824.11;;;30.57;39.37
79538;BME280;68989;52.032;5.152;2023-07-09T01:54:29;101827.73;;;30.54;39.33
79538;BME280;68989;52.032;5.152;2023-07-09T01:57:14;101830.06;;;30.51;39.41
79538;BME280;68989;52.032;5.152;2023-07-09T01:59:42;101836.13;;;30.47;39.58
79538;BME280;68989;52.032;5.152;2023-07-09T02:02:09;101841.84;;;30.43;39.60
79538;BME280;68989;52.032;5.152;2023-07-09T02:04:36;101842.28;;;30.40;39.67
79538;BME280;68989;52.032;5.152;2023-07-09T02:07:04;101840.71;;;30.35;39.67
79538;BME280;68989;52.032;5.152;2023-07-09T02:09:31;101838.84;;;30.34;39.68
79538;BME280;68989;52.032;5.152;2023-07-09T02:11:58;101837.43;;;30.31;39.73
79538;BME280;68989;52.032;5.152;2023-07-09T02:14:24;101838.47;;;30.29;39.67
79538;BME280;68989;52.032;5.152;2023-07-09T02:16:52;101838.23;;;30.27;39.72
79538;BME280;68989;52.032;5.152;2023-07-09T02:19:19;101837.02;;;30.25;39.70
79538;BME280;68989;52.032;5.152;2023-07-09T02:21:45;101834.96;;;30.22;39.80
79538;BME280;68989;52.032;5.152;2023-07-09T02:24:12;101831.79;;;30.20;39.87
79538;BME280;68989;52.032;5.152;2023-07-09T02:26:40;101829.55;;;30.16;40.00
79538;BME280;68989;52.032;5.152;2023-07-09T02:29:07;101830.80;;;30.14;40.12
79538;BME280;68989;52.032;5.152;2023-07-09T02:31:34;101832.56;;;30.11;40.07
79538;BME280;68989;52.032;5.152;2023-07-09T02:34:01;101831.22;;;30.08;40.07
79538;BME280;68989;52.032;5.152;2023-07-09T02:36:28;101830.98;;;30.06;40.15
79538;BME280;68989;52.032;5.152;2023-07-09T02:38:55;101827.87;;;30.03;40.18
79538;BME280;68989;52.032;5.152;2023-07-09T02:41:22;101825.10;;;30.00;40.13
79538;BME280;68989;52.032;5.152;2023-07-09T02:43:49;101823.83;;;29.98;40.17
79538;BME280;68989;52.032;5.152;2023-07-09T02:46:16;101826.43;;;29.94;40.21
79538;BME280;68989;52.032;5.152;2023-07-09T02:48:44;101829.22;;;29.93;40.24
79538;BME280;68989;52.032;5.152;2023-07-09T02:51:11;101834.89;;;29.92;40.31
79538;BME280;68989;52.032;5.152;2023-07-09T02:53:38;101836.51;;;29.89;40.34
79538;BME280;68989;52.032;5.152;2023-07-09T02:56:06;101837.61;;;29.87;40.37
79538;BME280;68989;52.032;5.152;2023-07-09T02:58:32;101833.48;;;29.85;40.38
79538;BME280;68989;52.032;5.152;2023-07-09T03:01:00;101835.28;;;29.82;40.43
79538;BME280;68989;52.032;5.152;2023-07-09T03:03:27;101837.28;;;29.80;40.43
79538;BME280;68989;52.032;5.152;2023-07-09T03:05:54;101835.41;;;29.78;40.42
79538;BME280;68989;52.032;5.152;2023-07-09T03:08:22;101835.50;;;29.75;40.43
79538;BME280;68989;52.032;5.152;2023-07-09T03:10:49;101836.70;;;29.73;40.50
79538;BME280;68989;52.032;5.152;2023-07-09T03:13:16;101839.31;;;29.71;40.51
79538;BME280;68989;52.032;5.152;2023-07-09T03:15:44;101840.24;;;29.69;40.54
79538;BME280;68989;52.032;5.152;2023-07-09T03:18:20;101840.86;;;29.66;40.62
79538;BME280;68989;52.032;5.152;2023-07-09T03:20:46;101840.24;;;29.65;40.66
79538;BME280;68989;52.032;5.152;2023-07-09T03:23:13;101839.88;;;29.63;40.66
79538;BME280;68989;52.032;5.152;2023-07-09T03:25:41;101840.89;;;29.61;40.75
79538;BME280;68989;52.032;5.152;2023-07-09T03:28:08;101842.21;;;29.59;40.81
79538;BME280;68989;52.032;5.152;2023-07-09T03:30:35;101842.69;;;29.57;40.81
79538;BME280;68989;52.032;5.152;2023-07-09T03:33:06;101841.26;;;29.55;40.89
79538;BME280;68989;52.032;5.152;2023-07-09T03:35:33;101840.80;;;29.53;40.87
79538;BME280;68989;52.032;5.152;2023-07-09T03:38:01;101840.60;;;29.52;40.81
79538;BME280;68989;52.032;5.152;2023-07-09T03:40:28;101841.72;;;29.50;40.76
79538;BME280;68989;52.032;5.152;2023-07-09T03:42:55;101847.03;;;29.49;40.76
79538;BME280;68989;52.032;5.152;2023-07-09T03:45:22;101847.85;;;29.48;40.80
79538;BME280;68989;52.032;5.152;2023-07-09T03:47:49;101852.08;;;29.45;40.87
79538;BME280;68989;52.032;5.152;2023-07-09T03:50:16;101855.98;;;29.43;40.91
79538;BME280;68989;52.032;5.152;2023-07-09T03:52:44;101859.17;;;29.43;40.84
79538;BME280;68989;52.032;5.152;2023-07-09T03:55:11;101862.74;;;29.41;40.90
79538;BME280;68989;52.032;5.152;2023-07-09T03:57:38;101864.38;;;29.40;40.92
79538;BME280;68989;52.032;5.152;2023-07-09T04:00:07;101862.36;;;29.38;40.88
79538;BME280;68989;52.032;5.152;2023-07-09T04:02:34;101861.30;;;29.39;40.88
79538;BME280;68989;52.032;5.152;2023-07-09T04:05:01;101858.25;;;29.39;40.93
79538;BME280;68989;52.032;5.152;2023-07-09T04:07:28;101857.09;;;29.38;40.95
79538;BME280;68989;52.032;5.152;2023-07-09T04:09:55;101856.62;;;29.37;40.94
79538;BME280;68989;52.032;5.152;2023-07-09T04:12:25;101859.50;;;29.37;40.93
79538;BME280;68989;52.032;5.152;2023-07-09T04:14:52;101861.02;;;29.34;40.99
79538;BME280;68989;52.032;5.152;2023-07-09T04:17:20;101860.32;;;29.33;41.03
79538;BME280;68989;52.032;5.152;2023-07-09T04:19:47;101858.28;;;29.34;41.13
79538;BME280;68989;52.032;5.152;2023-07-09T04:22:14;101859.57;;;29.34;41.10
79538;BME280;68989;52.032;5.152;2023-07-09T04:24:41;101859.30;;;29.34;41.14
79538;BME280;68989;52.032;5.152;2023-07-09T04:27:09;101856.80;;;29.34;41.15
79538;BME280;68989;52.032;5.152;2023-07-09T04:29:36;101860.32;;;29.34;41.25
79538;BME280;68989;52.032;5.152;2023-07-09T04:32:04;101860.46;;;29.34;41.23
79538;BME280;68989;52.032;5.152;2023-07-09T04:34:32;101859.59;;;29.35;41.19
79538;BME280;68989;52.032;5.152;2023-07-09T04:36:59;101857.42;;;29.35;41.23
79538;BME280;68989;52.032;5.152;2023-07-09T04:39:27;101854.52;;;29.36;41.22
79538;BME280;68989;52.032;5.152;2023-07-09T04:41:53;101852.30;;;29.36;41.29
79538;BME280;68989;52.032;5.152;2023-07-09T04:44:21;101851.60;;;29.37;41.32
79538;BME280;68989;52.032;5.152;2023-07-09T04:46:48;101846.77;;;29.36;41.45
79538;BME280;68989;52.032;5.152;2023-07-09T04:49:15;101842.29;;;29.35;41.57
79538;BME280;68989;52.032;5.152;2023-07-09T04:51:43;101842.12;;;29.36;41.34
79538;BME280;68989;52.032;5.152;2023-07-09T04:54:10;101844.47;;;29.39;41.36
79538;BME280;68989;52.032;5.152;2023-07-09T04:56:37;101844.21;;;29.40;41.21
79538;BME280;68989;52.032;5.152;2023-07-09T04:59:04;101847.00;;;29.42;41.09
79538;BME280;68989;52.032;5.152;2023-07-09T05:01:31;101850.33;;;29.45;41.19
79538;BME280;68989;52.032;5.152;2023-07-09T05:03:58;101849.25;;;29.49;41.26
79538;BME280;68989;52.032;5.152;2023-07-09T05:06:26;101849.19;;;29.52;41.22
79538;BME280;68989;52.032;5.152;2023-07-09T05:08:53;101851.44;;;29.56;41.28
79538;BME280;68989;52.032;5.152;2023-07-09T05:11:19;101852.54;;;29.63;41.24
79538;BME280;68989;52.032;5.152;2023-07-09T05:13:46;101852.74;;;29.67;41.28
79538;BME280;68989;52.032;5.152;2023-07-09T05:16:14;101853.84;;;29.72;41.23
79538;BME280;68989;52.032;5.152;2023-07-09T05:18:40;101856.73;;;29.77;41.29
79538;BME280;68989;52.032;5.152;2023-07-09T05:21:08;101856.33;;;29.83;41.18
79538;BME280;68989;52.032;5.152;2023-07-09T05:23:35;101855.80;;;29.89;41.23
79538;BME280;68989;52.032;5.152;2023-07-09T05:26:03;101851.19;;;29.97;41.46
79538;BME280;68989;52.032;5.152;2023-07-09T05:28:30;101848.32;;;30.04;41.43
79538;BME280;68989;52.032;5.152;2023-07-09T05:30:58;101849.78;;;30.11;41.26
79538;BME280;68989;52.032;5.152;2023-07-09T05:33:25;101848.63;;;30.18;41.86
79538;BME280;68989;52.032;5.152;2023-07-09T05:35:52;101844.16;;;30.24;41.77
79538;BME280;68989;52.032;5.152;2023-07-09T05:38:19;101842.93;;;30.32;42.64
79538;BME280;68989;52.032;5.152;2023-07-09T05:40:46;101840.96;;;30.41;43.74
79538;BME280;68989;52.032;5.152;2023-07-09T05:43:13;101841.29;;;30.50;43.50
79538;BME280;68989;52.032;5.152;2023-07-09T05:45:40;101841.44;;;30.58;43.34
79538;BME280;68989;52.032;5.152;2023-07-09T05:48:07;101843.63;;;30.71;42.48
79538;BME280;68989;52.032;5.152;2023-07-09T05:50:35;101843.21;;;30.82;41.41
79538;BME280;68989;52.032;5.152;2023-07-09T05:53:02;101843.65;;;30.91;41.69
79538;BME280;68989;52.032;5.152;2023-07-09T05:55:29;101844.80;;;31.00;40.91
79538;BME280;68989;52.032;5.152;2023-07-09T05:57:57;101843.65;;;31.13;40.41
79538;BME280;68989;52.032;5.152;2023-07-09T06:00:24;101844.33;;;31.24;40.33
79538;BME280;68989;52.032;5.152;2023-07-09T06:02:56;101846.28;;;31.35;40.34
79538;BME280;68989;52.032;5.152;2023-07-09T06:05:23;101841.57;;;31.46;41.22
79538;BME280;68989;52.032;5.152;2023-07-09T06:07:51;101847.57;;;31.51;41.75
79538;BME280;68989;52.032;5.152;2023-07-09T06:10:18;101855.79;;;31.61;41.69
79538;BME280;68989;52.032;5.152;2023-07-09T06:12:45;101858.20;;;31.72;42.14
79538;BME280;68989;52.032;5.152;2023-07-09T06:15:12;101860.19;;;31.82;41.63
79538;BME280;68989;52.032;5.152;2023-07-09T06:17:39;101862.68;;;31.93;41.13
79538;BME280;68989;52.032;5.152;2023-07-09T06:20:07;101865.65;;;32.05;41.48
79538;BME280;68989;52.032;5.152;2023-07-09T06:22:34;101868.27;;;32.16;40.35
79538;BME280;68989;52.032;5.152;2023-07-09T06:25:02;101868.18;;;32.28;38.98
79538;BME280;68989;52.032;5.152;2023-07-09T06:27:29;101865.48;;;32.41;39.78
79538;BME280;68989;52.032;5.152;2023-07-09T06:29:56;101866.04;;;32.52;39.14
79538;BME280;68989;52.032;5.152;2023-07-09T06:32:23;101872.15;;;32.64;38.32
79538;BME280;68989;52.032;5.152;2023-07-09T06:34:50;101874.07;;;32.79;37.72
79538;BME280;68989;52.032;5.152;2023-07-09T06:37:17;101874.33;;;32.92;37.54
79538;BME280;68989;52.032;5.152;2023-07-09T06:39:44;101877.69;;;33.07;37.50
79538;BME280;68989;52.032;5.152;2023-07-09T06:42:12;101882.14;;;33.23;36.97
79538;BME280;68989;52.032;5.152;2023-07-09T06:44:39;101882.04;;;33.40;36.72
79538;BME280;68989;52.032;5.152;2023-07-09T06:47:06;101877.67;;;33.57;37.11
79538;BME280;68989;52.032;5.152;2023-07-09T06:49:34;101879.05;;;33.76;36.87
79538;BME280;68989;52.032;5.152;2023-07-09T06:52:01;101871.86;;;33.94;36.47
79538;BME280;68989;52.032;5.152;2023-07-09T06:54:27;101873.69;;;34.13;36.77
79538;BME280;68989;52.032;5.152;2023-07-09T06:56:54;101872.46;;;34.30;36.99
79538;BME280;68989;52.032;5.152;2023-07-09T06:59:21;101867.34;;;34.44;37.15
79538;BME280;68989;52.032;5.152;2023-07-09T07:01:48;101859.56;;;34.58;36.87
79538;BME280;68989;52.032;5.152;2023-07-09T07:04:15;101860.60;;;34.74;36.25
79538;BME280;68989;52.032;5.152;2023-07-09T07:06:44;101864.31;;;34.91;35.57
79538;BME280;68989;52.032;5.152;2023-07-09T07:09:11;101870.03;;;35.08;34.94
79538;BME280;68989;52.032;5.152;2023-07-09T07:11:38;101867.72;;;35.25;34.70
79538;BME280;68989;52.032;5.152;2023-07-09T07:14:04;101873.03;;;35.44;34.73
79538;BME280;68989;52.032;5.152;2023-07-09T07:16:32;101873.84;;;35.61;34.27
79538;BME280;68989;52.032;5.152;2023-07-09T07:18:59;101873.95;;;35.80;34.69
79538;BME280;68989;52.032;5.152;2023-07-09T07:21:26;101876.97;;;35.98;34.43
79538;BME280;68989;52.032;5.152;2023-07-09T07:23:53;101871.52;;;36.15;34.16
79538;BME280;68989;52.032;5.152;2023-07-09T07:26:20;101869.10;;;36.35;33.30
79538;BME280;68989;52.032;5.152;2023-07-09T07:28:47;101866.26;;;36.52;33.00
79538;BME280;68989;52.032;5.152;2023-07-09T07:31:15;101867.42;;;36.70;32.51
79538;BME280;68989;52.032;5.152;2023-07-09T07:33:41;101868.94;;;36.88;32.23
79538;BME280;68989;52.032;5.152;2023-07-09T07:36:10;101869.75;;;37.06;31.99
79538;BME280;68989;52.032;5.152;2023-07-09T07:38:37;101869.28;;;37.23;31.86
79538;BME280;68989;52.032;5.152;2023-07-09T07:41:03;101869.17;;;37.39;31.59
79538;BME280;68989;52.032;5.152;2023-07-09T07:43:31;101869.82;;;37.57;31.64
79538;BME280;68989;52.032;5.152;2023-07-09T07:45:58;101871.68;;;37.76;31.40
79538;BME280;68989;52.032;5.152;2023-07-09T07:48:25;101869.75;;;38.00;31.60
79538;BME280;68989;52.032;5.152;2023-07-09T07:50:54;101869.31;;;38.19;31.06
79538;BME280;68989;52.032;5.152;2023-07-09T07:53:25;101866.91;;;38.35;31.15
79538;BME280;68989;52.032;5.152;2023-07-09T07:55:52;101860.06;;;38.49;30.55
79538;BME280;68989;52.032;5.152;2023-07-09T07:58:19;101860.89;;;38.64;30.25
79538;BME280;68989;52.032;5.152;2023-07-09T08:00:47;101857.26;;;38.79;30.34
79538;BME280;68989;52.032;5.152;2023-07-09T08:03:14;101853.43;;;38.93;30.05
79538;BME280;68989;52.032;5.152;2023-07-09T08:05:41;101854.15;;;39.09;30.16
79538;BME280;68989;52.032;5.152;2023-07-09T08:08:08;101856.16;;;39.24;30.24
79538;BME280;68989;52.032;5.152;2023-07-09T08:10:36;101861.90;;;39.38;29.69
79538;BME280;68989;52.032;5.152;2023-07-09T08:13:03;101864.31;;;39.52;29.37
79538;BME280;68989;52.032;5.152;2023-07-09T08:15:30;101861.33;;;39.66;29.52
79538;BME280;68989;52.032;5.152;2023-07-09T08:17:57;101858.75;;;39.79;29.58
79538;BME280;68989;52.032;5.152;2023-07-09T08:20:24;101854.96;;;39.92;29.31
79538;BME280;68989;52.032;5.152;2023-07-09T08:22:51;101850.55;;;39.98;29.91
79538;BME280;68989;52.032;5.152;2023-07-09T08:25:19;101849.03;;;39.93;29.88
79538;BME280;68989;52.032;5.152;2023-07-09T08:27:46;101849.59;;;39.84;29.90
79538;BME280;68989;52.032;5.152;2023-07-09T08:30:14;101851.41;;;39.71;30.18
79538;BME280;68989;52.032;5.152;2023-07-09T08:32:41;101852.59;;;39.66;30.17
79538;BME280;68989;52.032;5.152;2023-07-09T08:35:08;101850.27;;;39.75;30.10
79538;BME280;68989;52.032;5.152;2023-07-09T08:37:36;101847.21;;;39.88;30.03
79538;BME280;68989;52.032;5.152;2023-07-09T08:40:05;101848.40;;;40.00;29.93
79538;BME280;68989;52.032;5.152;2023-07-09T08:42:38;101849.97;;;40.13;29.75
79538;BME280;68989;52.032;5.152;2023-07-09T08:45:17;101850.85;;;40.24;29.55
79538;BME280;68989;52.032;5.152;2023-07-09T08:47:57;101848.07;;;40.35;28.78
79538;BME280;68989;52.032;5.152;2023-07-09T08:50:28;101845.19;;;40.49;29.04
79538;BME280;68989;52.032;5.152;2023-07-09T08:52:59;101840.21;;;40.71;29.49
79538;BME280;68989;52.032;5.152;2023-07-09T08:55:29;101840.94;;;40.84;29.67
79538;BME280;68989;52.032;5.152;2023-07-09T08:58:00;101837.97;;;41.03;29.71
79538;BME280;68989;52.032;5.152;2023-07-09T09:00:30;101837.14;;;41.21;29.54
79538;BME280;68989;52.032;5.152;2023-07-09T09:03:00;101835.59;;;41.40;29.28
79538;BME280;68989;52.032;5.152;2023-07-09T09:05:33;101838.42;;;41.57;28.99
79538;BME280;68989;52.032;5.152;2023-07-09T09:08:12;101840.06;;;41.71;28.75
79538;BME280;68989;52.032;5.152;2023-07-09T09:10:48;101840.46;;;41.90;28.72
79538;BME280;68989;52.032;5.152;2023-07-09T09:13:20;101839.22;;;42.08;28.23
79538;BME280;68989;52.032;5.152;2023-07-09T09:15:50;101840.60;;;42.12;28.18
79538;BME280;68989;52.032;5.152;2023-07-09T09:18:21;101837.15;;;42.07;28.19
79538;BME280;68989;52.032;5.152;2023-07-09T09:20:55;101838.16;;;42.12;28.00
79538;BME280;68989;52.032;5.152;2023-07-09T09:23:44;101830.28;;;42.22;28.04
79538;BME280;68989;52.032;5.152;2023-07-09T09:26:19;101830.06;;;42.37;28.00
79538;BME280;68989;52.032;5.152;2023-07-09T09:28:48;101825.70;;;42.35;27.84
79538;BME280;68989;52.032;5.152;2023-07-09T09:31:16;101822.89;;;42.43;27.44
79538;BME280;68989;52.032;5.152;2023-07-09T09:33:47;101819.25;;;42.56;27.49
79538;BME280;68989;52.032;5.152;2023-07-09T09:36:17;101823.57;;;42.70;27.09
79538;BME280;68989;52.032;5.152;2023-07-09T09:38:45;101825.48;;;42.72;26.83
79538;BME280;68989;52.032;5.152;2023-07-09T09:41:14;101820.73;;;42.71;26.85
79538;BME280;68989;52.032;5.152;2023-07-09T09:43:44;101811.66;;;42.74;26.94
79538;BME280;68989;52.032;5.152;2023-07-09T09:46:17;101813.35;;;42.41;26.98
79538;BME280;68989;52.032;5.152;2023-07-09T09:48:47;101816.67;;;42.44;27.04
79538;BME280;68989;52.032;5.152;2023-07-09T09:51:14;101811.99;;;42.58;26.93
79538;BME280;68989;52.032;5.152;2023-07-09T09:53:46;101807.20;;;42.78;26.08
79538;BME280;68989;52.032;5.152;2023-07-09T09:56:27;101804.17;;;43.01;26.35
79538;BME280;68989;52.032;5.152;2023-07-09T09:58:56;101802.81;;;43.27;25.65
79538;BME280;68989;52.032;5.152;2023-07-09T10:01:27;101802.32;;;43.38;25.13
79538;BME280;68989;52.032;5.152;2023-07-09T10:03:57;101800.22;;;43.47;25.19
79538;BME280;68989;52.032;5.152;2023-07-09T10:06:29;101797.17;;;43.49;25.58
79538;BME280;68989;52.032;5.152;2023-07-09T10:10:14;101788.68;;;43.27;25.47
79538;BME280;68989;52.032;5.152;2023-07-09T10:12:47;101794.39;;;43.07;25.48
79538;BME280;68989;52.032;5.152;2023-07-09T10:15:25;101791.06;;;43.22;25.76
79538;BME280;68989;52.032;5.152;2023-07-09T10:18:00;101791.29;;;43.49;25.59
79538;BME280;68989;52.032;5.152;2023-07-09T10:20:34;101799.17;;;43.79;25.46
79538;BME280;68989;52.032;5.152;2023-07-09T10:23:10;101804.84;;;43.97;24.84
79538;BME280;68989;52.032;5.152;2023-07-09T10:25:48;101807.44;;;44.09;24.69
79538;BME280;68989;52.032;5.152;2023-07-09T10:28:33;101807.67;;;44.18;24.59
79538;BME280;68989;52.032;5.152;2023-07-09T10:31:09;101809.97;;;44.23;23.97
79538;BME280;68989;52.032;5.152;2023-07-09T10:33:45;101810.67;;;44.12;23.83
79538;BME280;68989;52.032;5.152;2023-07-09T10:36:26;101815.04;;;44.08;24.22
79538;BME280;68989;52.032;5.152;2023-07-09T10:39:02;101814.84;;;44.08;23.93
79538;BME280;68989;52.032;5.152;2023-07-09T10:41:31;101812.89;;;44.05;24.00
79538;BME280;68989;52.032;5.152;2023-07-09T10:44:06;101815.90;;;44.06;23.88
79538;BME280;68989;52.032;5.152;2023-07-09T10:46:40;101816.00;;;44.06;24.06
79538;BME280;68989;52.032;5.152;2023-07-09T10:49:12;101815.15;;;44.02;23.82
79538;BME280;68989;52.032;5.152;2023-07-09T10:51:46;101816.34;;;43.93;24.11
79538;BME280;68989;52.032;5.152;2023-07-09T10:54:24;101814.49;;;44.04;24.66
79538;BME280;68989;52.032;5.152;2023-07-09T10:56:59;101817.38;;;44.21;24.65
79538;BME280;68989;52.032;5.152;2023-07-09T10:59:32;101818.16;;;44.31;24.83
79538;BME280;68989;52.032;5.152;2023-07-09T11:02:13;101819.63;;;44.35;24.92
79538;BME280;68989;52.032;5.152;2023-07-09T11:04:45;101819.53;;;44.26;25.09
79538;BME280;68989;52.032;5.152;2023-07-09T11:07:18;101817.30;;;44.14;25.42
79538;BME280;68989;52.032;5.152;2023-07-09T11:09:48;101819.12;;;44.11;25.62
79538;BME280;68989;52.032;5.152;2023-07-09T11:12:19;101821.25;;;44.08;25.82
79538;BME280;68989;52.032;5.152;2023-07-09T11:14:52;101823.12;;;44.11;25.84
79538;BME280;68989;52.032;5.152;2023-07-09T11:17:20;101819.97;;;44.24;24.92
79538;BME280;68989;52.032;5.152;2023-07-09T11:19:53;101814.53;;;44.38;24.73
79538;BME280;68989;52.032;5.152;2023-07-09T11:22:23;101816.18;;;44.51;24.63
79538;BME280;68989;52.032;5.152;2023-07-09T11:24:53;101811.45;;;44.59;24.29
79538;BME280;68989;52.032;5.152;2023-07-09T11:27:31;101808.11;;;44.58;24.46
79538;BME280;68989;52.032;5.152;2023-07-09T11:30:00;101807.51;;;44.58;24.57
79538;BME280;68989;52.032;5.152;2023-07-09T11:32:28;101804.61;;;44.55;24.44
79538;BME280;68989;52.032;5.152;2023-07-09T11:35:06;101809.32;;;44.45;24.61
79538;BME280;68989;52.032;5.152;2023-07-09T11:37:44;101810.50;;;44.41;24.50
79538;BME280;68989;52.032;5.152;2023-07-09T11:40:13;101809.20;;;44.45;24.59
79538;BME280;68989;52.032;5.152;2023-07-09T11:42:48;101814.77;;;44.49;24.53
79538;BME280;68989;52.032;5.152;2023-07-09T11:45:19;101818.32;;;44.50;24.42
79538;BME280;68989;52.032;5.152;2023-07-09T11:47:50;101820.71;;;44.47;24.55
79538;BME280;68989;52.032;5.152;2023-07-09T11:50:26;101826.91;;;44.45;24.21
79538;BME280;68989;52.032;5.152;2023-07-09T11:52:57;101838.73;;;44.37;24.02
79538;BME280;68989;52.032;5.152;2023-07-09T11:55:28;101843.34;;;44.24;24.03
79538;BME280;68989;52.032;5.152;2023-07-09T11:57:56;101845.10;;;44.11;24.15
79538;BME280;68989;52.032;5.152;2023-07-09T12:00:26;101849.33;;;43.95;24.71
79538;BME280;68989;52.032;5.152;2023-07-09T12:02:54;101856.53;;;43.72;24.59
79538;BME280;68989;52.032;5.152;2023-07-09T12:05:26;101863.29;;;43.55;24.86
79538;BME280;68989;52.032;5.152;2023-07-09T12:07:53;101868.90;;;43.39;25.18
79538;BME280;68989;52.032;5.152;2023-07-09T12:10:24;101866.78;;;43.26;25.26
79538;BME280;68989;52.032;5.152;2023-07-09T12:12:56;101871.11;;;43.23;25.56
79538;BME280;68989;52.032;5.152;2023-07-09T12:15:26;101867.25;;;43.29;25.25
79538;BME280;68989;52.032;5.152;2023-07-09T12:17:56;101866.25;;;43.35;25.25
79538;BME280;68989;52.032;5.152;2023-07-09T12:20:24;101868.20;;;43.36;24.87
79538;BME280;68989;52.032;5.152;2023-07-09T12:22:51;101873.27;;;43.34;24.69
79538;BME280;68989;52.032;5.152;2023-07-09T12:25:22;101883.53;;;43.32;24.55
79538;BME280;68989;52.032;5.152;2023-07-09T12:27:49;101899.80;;;43.35;24.89
79538;BME280;68989;52.032;5.152;2023-07-09T12:30:16;101915.30;;;43.35;24.29
79538;BME280;68989;52.032;5.152;2023-07-09T12:32:45;101914.24;;;43.31;24.37
79538;BME280;68989;52.032;5.152;2023-07-09T12:35:13;101901.08;;;43.21;24.05
79538;BME280;68989;52.032;5.152;2023-07-09T12:37:42;101896.82;;;43.13;24.27
79538;BME280;68989;52.032;5.152;2023-07-09T12:40:14;101892.92;;;43.11;24.17
79538;BME280;68989;52.032;5.152;2023-07-09T12:42:42;101886.00;;;43.13;24.09
79538;BME280;68989;52.032;5.152;2023-07-09T12:45:15;101872.53;;;43.12;24.19
79538;BME280;68989;52.032;5.152;2023-07-09T12:47:42;101868.72;;;43.13;24.15
79538;BME280;68989;52.032;5.152;2023-07-09T12:50:19;101876.29;;;43.15;24.25
79538;BME280;68989;52.032;5.152;2023-07-09T12:52:47;101875.95;;;43.19;24.15
79538;BME280;68989;52.032;5.152;2023-07-09T12:55:23;101884.63;;;43.21;24.06
79538;BME280;68989;52.032;5.152;2023-07-09T12:57:51;101881.43;;;43.20;23.81
79538;BME280;68989;52.032;5.152;2023-07-09T13:00:29;101885.81;;;43.17;23.77